Time;durP1;ratioP1;P1;durP2;ratioP2;P2;SDS_P1;SDS_P2;PMS_P1;PMS_P2;Temp;Humidity;BMP_temperature;BMP_pressure;BME280_temperature;BME280_humidity;BME280_pressure;Samples;Min_cycle;Max_cycle;Signal;HPM_P1;HPM_P2
2022/01/12 00:02:04;;;;;;;2.38;1.20;;;;;;;;;;5039682;28;20435;-66
2022/01/12 00:04:30;;;;;;;1.85;1.30;;;;;;;;;;5040655;28;20070;-68
2022/01/12 00:06:56;;;;;;;3.35;1.13;;;;;;;;;;5041259;28;20115;-67
2022/01/12 00:09:22;;;;;;;1.92;1.23;;;;;;;;;;5041010;28;20132;-67
2022/01/12 00:11:49;;;;;;;1.65;0.90;;;;;;;;;;5035314;28;20546;-67
2022/01/12 00:14:14;;;;;;;1.35;0.80;;;;;;;;;;5040749;28;20384;-69
2022/01/12 00:16:46;;;;;;;2.63;1.63;;;;;;;;;;5039771;28;20040;-67
2022/01/12 00:19:12;;;;;;;2.40;1.50;;;;;;;;;;5047300;28;20033;-70
2022/01/12 00:21:37;;;;;;;1.95;1.30;;;;;;;;;;5050534;28;20021;-65
2022/01/12 00:24:04;;;;;;;1.63;1.30;;;;;;;;;;5050616;28;20033;-71
2022/01/12 00:34:36;;;;;;;2.40;1.38;;;;;;;;;;5048203;28;20029;-70
2022/01/12 00:37:03;;;;;;;2.88;1.73;;;;;;;;;;5050343;28;20045;-68
2022/01/12 00:39:29;;;;;;;2.13;1.40;;;;;;;;;;5048160;28;20025;-67
2022/01/12 00:41:55;;;;;;;2.30;1.58;;;;;;;;;;5042215;28;20469;-67
2022/01/12 00:44:29;;;;;;;2.30;1.30;;;;;;;;;;5032894;28;20068;-67
2022/01/12 00:46:56;;;;;;;2.30;1.60;;;;;;;;;;5036407;28;20095;-68
2022/01/12 00:49:22;;;;;;;2.13;1.40;;;;;;;;;;5037802;28;20032;-67
2022/01/12 00:51:50;;;;;;;2.70;1.30;;;;;;;;;;5047086;28;20041;-67
2022/01/12 00:54:17;;;;;;;2.63;1.42;;;;;;;;;;5035526;28;20030;-67
2022/01/12 00:56:42;;;;;;;2.08;1.35;;;;;;;;;;5030752;28;20033;-68
2022/01/12 00:59:08;;;;;;;2.28;1.55;;;;;;;;;;5034025;28;20036;-69
2022/01/12 01:01:34;;;;;;;2.22;1.35;;;;;;;;;;5032262;28;20507;-67
2022/01/12 01:04:02;;;;;;;1.83;1.30;;;;;;;;;;5047345;28;20032;-67
2022/01/12 01:06:31;;;;;;;1.92;1.30;;;;;;;;;;5037989;28;20069;-66
2022/01/12 01:08:58;;;;;;;1.73;1.20;;;;;;;;;;5040191;28;20059;-67
2022/01/12 01:11:28;;;;;;;2.75;1.73;;;;;;;;;;5050405;28;20044;-66
2022/01/12 01:14:00;;;;;;;3.10;2.00;;;;;;;;;;5042546;28;20052;-67
2022/01/12 01:16:48;;;;;;;2.58;1.80;;;;;;;;;;5029587;28;20512;-67
2022/01/12 01:27:32;;;;;;;2.35;1.50;;;;;;;;;;5031115;28;20411;-67
2022/01/12 01:29:58;;;;;;;1.20;1.02;;;;;;;;;;5046749;28;20095;-67
2022/01/12 01:32:25;;;;;;;2.20;1.27;;;;;;;;;;5049507;28;20479;-68
2022/01/12 01:34:51;;;;;;;1.67;1.10;;;;;;;;;;5049016;28;20033;-67
2022/01/12 01:37:19;;;;;;;1.13;0.95;;;;;;;;;;5066492;28;20040;-67
2022/01/12 01:39:46;;;;;;;0.95;0.80;;;;;;;;;;5048770;28;20028;-68
2022/01/12 01:42:20;;;;;;;1.35;0.73;;;;;;;;;;5051552;28;20037;-66
2022/01/12 01:55:31;;;;;;;1.17;0.80;;;;;;;;;;5043068;28;20025;-65
2022/01/12 01:57:58;;;;;;;1.42;0.77;;;;;;;;;;5033229;28;20400;-67
2022/01/12 02:00:26;;;;;;;0.80;0.60;;;;;;;;;;5044711;28;20037;-69
2022/01/12 02:02:57;;;;;;;1.20;0.77;;;;;;;;;;5039283;28;20102;-68
2022/01/12 02:05:33;;;;;;;1.20;0.80;;;;;;;;;;5034743;28;20072;-66
2022/01/12 02:08:00;;;;;;;2.03;0.80;;;;;;;;;;5045369;28;20065;-66
2022/01/12 02:10:31;;;;;;;1.30;0.80;;;;;;;;;;5038142;28;20032;-67
2022/01/12 02:12:57;;;;;;;1.27;0.88;;;;;;;;;;5048955;28;20492;-71
2022/01/12 02:15:25;;;;;;;1.02;0.65;;;;;;;;;;5049014;28;20051;-68
2022/01/12 02:40:46;;;;;;;1.80;1.00;;;;;;;;;;5047284;28;20430;-66
2022/01/12 02:50:37;;;;;;;0.82;0.70;;;;;;;;;;5036329;28;20119;-66
2022/01/12 02:53:37;;;;;;;2.60;1.55;;;;;;;;;;5049992;28;20377;-67
2022/01/12 02:54:19;;;;;;;2.47;1.38;;;;;;;;;;5044076;28;20454;-67
2022/01/12 02:56:45;;;;;;;3.83;1.98;;;;;;;;;;5035714;28;20068;-67
2022/01/12 02:59:11;;;;;;;2.38;1.50;;;;;;;;;;5054414;28;20033;-67
2022/01/12 03:02:04;;;;;;;2.00;1.25;;;;;;;;;;5043446;28;20025;-67
2022/01/12 03:04:23;;;;;;;2.75;1.33;;;;;;;;;;5047922;28;20175;-67
2022/01/12 03:06:50;;;;;;;2.58;1.23;;;;;;;;;;5046903;28;20124;-67
2022/01/12 03:09:16;;;;;;;2.10;1.23;;;;;;;;;;5041812;28;20120;-66
2022/01/12 03:11:42;;;;;;;2.88;1.25;;;;;;;;;;5052603;28;20243;-67
2022/01/12 03:14:17;;;;;;;4.63;1.70;;;;;;;;;;5036568;28;20030;-68
2022/01/12 03:16:43;;;;;;;3.67;1.52;;;;;;;;;;5034924;28;20112;-67
2022/01/12 03:19:16;;;;;;;5.83;1.53;;;;;;;;;;5031713;28;20029;-68
2022/01/12 03:21:41;;;;;;;1.30;1.00;;;;;;;;;;5043836;28;20036;-67
2022/01/12 03:24:08;;;;;;;1.20;1.00;;;;;;;;;;5038539;28;20037;-66
2022/01/12 03:26:35;;;;;;;1.63;1.08;;;;;;;;;;5031482;28;20096;-68
2022/01/12 03:29:02;;;;;;;1.48;1.00;;;;;;;;;;5045022;28;20471;-66
2022/01/12 03:31:32;;;;;;;1.48;1.00;;;;;;;;;;5062670;28;20048;-66
2022/01/12 03:34:06;;;;;;;1.33;1.00;;;;;;;;;;5038864;28;20037;-66
2022/01/12 03:39:11;;;;;;;1.60;1.10;;;;;;;;;;5040238;28;20040;-66
2022/01/12 03:41:42;;;;;;;2.33;1.02;;;;;;;;;;5045575;28;20033;-66
2022/01/12 03:44:10;;;;;;;4.15;0.93;;;;;;;;;;5051602;28;20112;-65
2022/01/12 03:46:51;;;;;;;2.53;1.10;;;;;;;;;;5047457;28;20029;-67
2022/01/12 03:49:20;;;;;;;3.05;1.08;;;;;;;;;;5031860;28;20381;-66
2022/01/12 03:51:46;;;;;;;1.73;1.02;;;;;;;;;;5042751;28;20075;-65
2022/01/12 03:54:13;;;;;;;1.65;1.00;;;;;;;;;;5032846;28;20029;-66
2022/01/12 03:56:39;;;;;;;1.77;0.98;;;;;;;;;;5045525;28;20033;-66
2022/01/12 03:59:06;;;;;;;1.58;1.00;;;;;;;;;;5053090;28;20087;-66
2022/01/12 04:01:34;;;;;;;3.55;1.17;;;;;;;;;;5047033;28;20092;-67
2022/01/12 04:04:04;;;;;;;2.42;1.10;;;;;;;;;;5045437;28;20033;-67
2022/01/12 04:09:15;;;;;;;1.48;0.93;;;;;;;;;;5030781;28;20037;-67
2022/01/12 04:11:41;;;;;;;2.95;1.10;;;;;;;;;;5043859;28;20025;-67
2022/01/12 04:14:08;;;;;;;1.67;1.00;;;;;;;;;;5035486;28;20040;-67
2022/01/12 04:16:35;;;;;;;1.90;1.27;;;;;;;;;;5050626;28;20457;-67
2022/01/12 04:19:01;;;;;;;1.35;0.90;;;;;;;;;;5050961;28;20028;-72
2022/01/12 04:21:29;;;;;;;1.33;0.90;;;;;;;;;;5051031;28;20033;-67
2022/01/12 04:23:56;;;;;;;1.67;1.15;;;;;;;;;;5050159;28;20083;-66
2022/01/12 04:26:23;;;;;;;2.22;1.00;;;;;;;;;;5035623;28;20029;-70
2022/01/12 04:28:49;;;;;;;2.13;1.30;;;;;;;;;;5042804;28;20030;-67
2022/01/12 04:31:15;;;;;;;1.92;1.30;;;;;;;;;;5039665;28;20045;-66
2022/01/12 04:33:42;;;;;;;2.45;1.20;;;;;;;;;;5038592;28;20030;-68
2022/01/12 04:36:10;;;;;;;2.55;1.40;;;;;;;;;;5047099;28;20025;-66
2022/01/12 04:38:38;;;;;;;2.95;1.58;;;;;;;;;;5036235;28;20033;-67
2022/01/12 04:41:09;;;;;;;2.78;1.95;;;;;;;;;;5044553;28;20108;-67
2022/01/12 04:43:37;;;;;;;4.47;1.23;;;;;;;;;;5043906;28;20040;-65
2022/01/12 04:48:52;;;;;;;3.03;1.85;;;;;;;;;;5045853;28;20033;-66
2022/01/12 04:51:19;;;;;;;1.88;1.42;;;;;;;;;;5042573;28;20041;-69
2022/01/12 04:53:45;;;;;;;4.18;1.70;;;;;;;;;;5049068;28;20490;-65
2022/01/12 04:56:11;;;;;;;4.68;1.73;;;;;;;;;;5045842;28;20489;-67
2022/01/12 04:58:37;;;;;;;4.88;2.03;;;;;;;;;;5036656;28;20035;-66
2022/01/12 05:01:22;;;;;;;2.25;1.67;;;;;;;;;;5047190;28;20104;-65
2022/01/12 05:14:58;;;;;;;4.13;2.25;;;;;;;;;;5018151;28;20374;-70
2022/01/12 05:17:25;;;;;;;2.90;1.85;;;;;;;;;;5025925;28;20116;-72
2022/01/12 05:19:51;;;;;;;2.80;2.13;;;;;;;;;;5024442;28;20120;-73
2022/01/12 05:22:17;;;;;;;3.60;2.13;;;;;;;;;;5009821;28;20038;-70
2022/01/12 05:24:43;;;;;;;2.75;1.95;;;;;;;;;;5042476;28;20028;-72
2022/01/12 05:27:08;;;;;;;4.78;1.95;;;;;;;;;;5011448;28;20045;-73
2022/01/12 05:29:34;;;;;;;3.95;2.47;;;;;;;;;;5057512;28;20028;-71
2022/01/12 05:32:00;;;;;;;6.22;3.05;;;;;;;;;;5029994;28;20033;-72
2022/01/12 05:34:27;;;;;;;8.95;3.25;;;;;;;;;;5013235;28;20129;-72
2022/01/12 05:36:53;;;;;;;6.40;2.60;;;;;;;;;;5008637;28;20519;-72
2022/01/12 05:39:19;;;;;;;4.35;2.90;;;;;;;;;;5028339;28;20021;-72
2022/01/12 05:41:45;;;;;;;3.22;2.67;;;;;;;;;;5027795;28;20117;-73
2022/01/12 05:44:11;;;;;;;5.05;2.20;;;;;;;;;;5053416;28;20030;-72
2022/01/12 05:46:40;;;;;;;3.55;2.45;;;;;;;;;;5023816;28;20036;-71
2022/01/12 05:51:58;;;;;;;3.17;2.20;;;;;;;;;;5009185;28;20041;-71
2022/01/12 05:54:23;;;;;;;4.20;2.45;;;;;;;;;;5023883;28;20422;-72
2022/01/12 05:56:49;;;;;;;4.25;2.55;;;;;;;;;;5045084;28;20092;-71
2022/01/12 05:59:17;;;;;;;4.05;2.53;;;;;;;;;;5021482;28;20030;-73
2022/01/12 06:01:43;;;;;;;4.50;2.58;;;;;;;;;;5019883;28;20033;-72
2022/01/12 06:04:09;;;;;;;6.20;3.08;;;;;;;;;;5045324;28;20048;-71
2022/01/12 06:06:36;;;;;;;3.00;1.85;;;;;;;;;;5024448;28;20066;-72
2022/01/12 06:09:03;;;;;;;4.07;2.40;;;;;;;;;;5008900;28;20029;-72
2022/01/12 06:11:29;;;;;;;3.60;2.10;;;;;;;;;;5020481;28;20040;-72
2022/01/12 06:13:57;;;;;;;4.18;2.13;;;;;;;;;;5015084;28;20050;-69
2022/01/12 06:16:26;;;;;;;2.72;2.00;;;;;;;;;;5025371;28;20049;-73
2022/01/12 06:18:52;;;;;;;4.03;1.83;;;;;;;;;;5014927;28;20053;-72
2022/01/12 06:21:19;;;;;;;4.07;2.35;;;;;;;;;;5028342;28;20128;-71
2022/01/12 06:24:05;;;;;;;4.32;2.80;;;;;;;;;;5028298;28;20329;-71
2022/01/12 06:26:31;;;;;;;3.38;2.28;;;;;;;;;;5016233;28;20548;-71
2022/01/12 06:31:56;;;;;;;4.03;2.30;;;;;;;;;;5017155;28;20042;-71
2022/01/12 06:34:22;;;;;;;4.45;2.20;;;;;;;;;;5030139;28;20037;-71
2022/01/12 06:36:49;;;;;;;2.95;2.33;;;;;;;;;;5015247;28;20049;-71
2022/01/12 06:39:17;;;;;;;5.00;2.28;;;;;;;;;;5014417;28;20104;-71
2022/01/12 06:41:44;;;;;;;5.63;2.38;;;;;;;;;;5022930;28;20437;-71
2022/01/12 06:44:15;;;;;;;3.53;2.28;;;;;;;;;;5052205;28;20034;-72
2022/01/12 06:46:42;;;;;;;3.25;2.47;;;;;;;;;;5029891;28;20046;-74
2022/01/12 06:49:08;;;;;;;4.22;2.78;;;;;;;;;;5012464;28;20022;-72
2022/01/12 06:51:35;;;;;;;4.78;2.88;;;;;;;;;;5012023;28;20113;-70
2022/01/12 06:54:03;;;;;;;4.10;2.60;;;;;;;;;;5058000;28;20408;-70
2022/01/12 06:56:31;;;;;;;6.70;2.90;;;;;;;;;;5033865;28;20044;-72
2022/01/12 06:58:57;;;;;;;5.60;3.40;;;;;;;;;;5032453;28;20479;-72
2022/01/12 07:01:23;;;;;;;5.22;2.83;;;;;;;;;;5031510;28;20088;-71
2022/01/12 07:03:50;;;;;;;5.18;2.55;;;;;;;;;;5048589;28;20391;-71
2022/01/12 07:06:18;;;;;;;2.95;2.10;;;;;;;;;;5031316;28;20037;-72
2022/01/12 07:08:44;;;;;;;3.05;1.92;;;;;;;;;;5031166;28;20021;-71
2022/01/12 07:11:19;;;;;;;2.15;1.27;;;;;;;;;;5065790;28;20060;-71
2022/01/12 07:13:48;;;;;;;1.90;1.20;;;;;;;;;;5032457;28;20492;-71
2022/01/12 07:16:14;;;;;;;5.60;1.60;;;;;;;;;;5059195;28;20130;-71
2022/01/12 07:18:40;;;;;;;2.75;1.58;;;;;;;;;;5023066;28;20056;-70
2022/01/12 07:21:06;;;;;;;1.88;1.20;;;;;;;;;;5050072;28;20030;-71
2022/01/12 07:23:32;;;;;;;1.65;1.00;;;;;;;;;;5024664;28;20029;-71
2022/01/12 07:25:58;;;;;;;2.50;1.30;;;;;;;;;;5022068;28;20058;-71
2022/01/12 07:28:23;;;;;;;2.85;1.67;;;;;;;;;;5032326;28;20136;-72
2022/01/12 07:30:50;;;;;;;1.65;1.10;;;;;;;;;;5014126;28;20045;-72
2022/01/12 07:33:16;;;;;;;2.50;1.52;;;;;;;;;;5014088;28;20034;-74
2022/01/12 07:35:42;;;;;;;2.75;1.10;;;;;;;;;;5013618;28;20377;-71
2022/01/12 07:38:08;;;;;;;2.15;1.40;;;;;;;;;;5025672;28;20171;-74
2022/01/12 07:40:35;;;;;;;4.13;1.50;;;;;;;;;;5016110;28;20029;-74
2022/01/12 07:43:05;;;;;;;3.53;2.10;;;;;;;;;;5011912;28;20030;-71
2022/01/12 07:45:32;;;;;;;2.40;1.70;;;;;;;;;;5030700;28;20060;-71
2022/01/12 07:47:58;;;;;;;4.70;2.60;;;;;;;;;;5020126;28;20037;-71
2022/01/12 07:50:24;;;;;;;4.38;2.50;;;;;;;;;;5024457;28;20117;-72
2022/01/12 07:52:53;;;;;;;6.30;2.80;;;;;;;;;;5031023;28;20026;-72
2022/01/12 07:55:23;;;;;;;4.88;3.10;;;;;;;;;;5016236;28;20041;-73
2022/01/12 07:57:50;;;;;;;5.03;2.30;;;;;;;;;;5026704;28;20500;-71
2022/01/12 08:00:18;;;;;;;3.30;1.75;;;;;;;;;;5011753;28;20033;-71
2022/01/12 08:02:44;;;;;;;3.08;1.73;;;;;;;;;;5011756;28;20113;-71
2022/01/12 08:05:10;;;;;;;4.47;2.22;;;;;;;;;;5027404;28;20421;-72
2022/01/12 08:07:38;;;;;;;3.00;2.10;;;;;;;;;;5028612;28;20057;-70
2022/01/12 08:10:06;;;;;;;2.00;1.55;;;;;;;;;;5019890;28;20506;-70
2022/01/12 08:12:32;;;;;;;2.40;1.52;;;;;;;;;;5021323;28;20036;-69
2022/01/12 08:14:58;;;;;;;3.20;1.63;;;;;;;;;;5022586;28;20492;-74
2022/01/12 08:17:24;;;;;;;2.60;1.50;;;;;;;;;;5028049;28;20037;-73
2022/01/12 08:19:53;;;;;;;4.65;1.92;;;;;;;;;;5019596;28;20018;-71
2022/01/12 08:22:19;;;;;;;4.43;2.00;;;;;;;;;;5020573;28;20056;-68
2022/01/12 08:24:44;;;;;;;9.55;4.53;;;;;;;;;;5028116;28;20464;-70
2022/01/12 08:27:10;;;;;;;4.28;3.20;;;;;;;;;;5031115;28;20041;-71
2022/01/12 08:29:36;;;;;;;4.00;2.85;;;;;;;;;;5024297;28;20341;-72
2022/01/12 08:32:03;;;;;;;2.78;1.77;;;;;;;;;;5020203;28;20038;-72
2022/01/12 08:34:28;;;;;;;5.35;3.20;;;;;;;;;;5027549;28;20033;-71
2022/01/12 08:36:54;;;;;;;3.67;2.03;;;;;;;;;;5017874;28;20052;-74
2022/01/12 08:39:20;;;;;;;4.97;3.13;;;;;;;;;;5021427;28;20056;-72
2022/01/12 08:41:46;;;;;;;6.82;2.92;;;;;;;;;;5022777;28;20135;-72
2022/01/12 08:44:11;;;;;;;7.28;2.67;;;;;;;;;;5016413;28;20036;-72
2022/01/12 08:46:38;;;;;;;5.72;3.15;;;;;;;;;;5028412;28;20433;-75
2022/01/12 08:49:04;;;;;;;4.50;3.05;;;;;;;;;;5011561;28;20026;-72
2022/01/12 08:51:30;;;;;;;5.40;3.00;;;;;;;;;;5013287;28;20033;-71
2022/01/12 08:53:56;;;;;;;3.92;1.90;;;;;;;;;;5025778;28;20541;-75
2022/01/12 08:56:22;;;;;;;7.20;2.90;;;;;;;;;;5023643;28;20419;-73
2022/01/12 08:58:49;;;;;;;5.15;3.00;;;;;;;;;;5017802;28;20038;-75
2022/01/12 09:01:15;;;;;;;4.55;3.20;;;;;;;;;;5030782;28;20033;-71
2022/01/12 09:03:41;;;;;;;3.60;2.78;;;;;;;;;;5025456;28;20022;-74
2022/01/12 09:06:07;;;;;;;3.63;2.47;;;;;;;;;;5022755;28;20041;-73
2022/01/12 09:08:36;;;;;;;5.32;3.03;;;;;;;;;;5023855;28;20029;-74
2022/01/12 09:11:03;;;;;;;4.90;3.20;;;;;;;;;;5031947;28;20052;-73
2022/01/12 09:13:29;;;;;;;5.05;2.42;;;;;;;;;;5017135;28;20026;-70
2022/01/12 09:15:55;;;;;;;5.30;3.28;;;;;;;;;;5028131;28;20083;-71
2022/01/12 09:18:21;;;;;;;4.57;2.65;;;;;;;;;;5018630;28;20026;-73
2022/01/12 09:20:47;;;;;;;4.75;2.83;;;;;;;;;;5025477;28;20507;-75
2022/01/12 09:23:13;;;;;;;4.60;2.65;;;;;;;;;;5015391;28;20033;-71
2022/01/12 09:25:39;;;;;;;5.03;3.13;;;;;;;;;;5027566;28;20060;-73
2022/01/12 09:28:06;;;;;;;6.15;3.22;;;;;;;;;;5050842;28;20087;-74
2022/01/12 09:30:32;;;;;;;5.97;3.15;;;;;;;;;;5027801;28;20049;-73
2022/01/12 09:32:59;;;;;;;5.78;3.85;;;;;;;;;;5015571;28;20025;-70
2022/01/12 09:35:25;;;;;;;5.93;3.90;;;;;;;;;;5021585;28;20068;-72
2022/01/12 09:37:52;;;;;;;5.80;3.72;;;;;;;;;;5020482;28;20040;-75
2022/01/12 09:40:18;;;;;;;5.30;3.33;;;;;;;;;;5015458;28;20376;-75
2022/01/12 09:42:48;;;;;;;6.72;3.47;;;;;;;;;;5032716;28;20108;-72
2022/01/12 09:45:17;;;;;;;4.72;3.20;;;;;;;;;;5019582;28;20030;-77
2022/01/12 09:47:49;;;;;;;4.05;2.45;;;;;;;;;;5027560;28;20037;-76
2022/01/12 09:50:18;;;;;;;4.28;2.78;;;;;;;;;;5018436;28;20029;-76
2022/01/12 09:52:44;;;;;;;4.80;2.72;;;;;;;;;;5020901;28;20028;-72
2022/01/12 09:55:10;;;;;;;3.40;2.08;;;;;;;;;;5010056;28;20463;-75
2022/01/12 09:57:36;;;;;;;4.90;2.80;;;;;;;;;;5027802;28;20036;-77
2022/01/12 10:00:06;;;;;;;4.72;3.10;;;;;;;;;;5018073;28;20030;-77
2022/01/12 10:02:41;;;;;;;4.45;2.90;;;;;;;;;;5029414;28;20041;-75
2022/01/12 10:05:09;;;;;;;3.70;2.85;;;;;;;;;;5014986;28;20282;-72
2022/01/12 10:07:35;;;;;;;5.75;2.78;;;;;;;;;;5023374;28;20065;-75
2022/01/12 10:10:05;;;;;;;7.93;3.33;;;;;;;;;;5023525;28;20084;-76
2022/01/12 10:12:32;;;;;;;4.22;2.70;;;;;;;;;;5029896;28;20041;-74
2022/01/12 10:15:06;;;;;;;5.30;2.85;;;;;;;;;;5026426;28;20097;-74
2022/01/12 10:17:39;;;;;;;5.88;3.00;;;;;;;;;;5020140;28;20026;-72
2022/01/12 10:20:12;;;;;;;4.60;2.50;;;;;;;;;;5030134;28;20388;-75
2022/01/12 10:22:44;;;;;;;5.70;2.80;;;;;;;;;;5021842;28;20042;-73
2022/01/12 10:25:16;;;;;;;3.47;2.42;;;;;;;;;;5032491;28;20317;-77
2022/01/12 10:27:42;;;;;;;4.28;2.10;;;;;;;;;;5031523;28;20484;-71
2022/01/12 10:30:20;;;;;;;5.93;3.30;;;;;;;;;;5022159;28;20050;-74
2022/01/12 10:32:46;;;;;;;4.50;2.45;;;;;;;;;;5018407;28;20361;-78
2022/01/12 10:35:12;;;;;;;4.95;2.55;;;;;;;;;;5022525;28;20059;-75
2022/01/12 10:37:38;;;;;;;3.25;2.30;;;;;;;;;;5018641;28;20038;-72
2022/01/12 10:40:07;;;;;;;4.65;2.67;;;;;;;;;;5019400;28;20065;-75
2022/01/12 10:42:33;;;;;;;4.05;2.45;;;;;;;;;;5017946;28;20483;-77
2022/01/12 10:45:04;;;;;;;4.63;3.10;;;;;;;;;;5015612;28;20056;-76
2022/01/12 10:47:32;;;;;;;4.68;2.85;;;;;;;;;;5019796;28;20049;-75
2022/01/12 10:50:00;;;;;;;6.18;2.85;;;;;;;;;;5025200;28;20385;-76
2022/01/12 10:52:32;;;;;;;4.60;2.97;;;;;;;;;;5014859;28;20070;-74
2022/01/12 10:55:05;;;;;;;5.35;3.63;;;;;;;;;;5023248;28;20030;-74
2022/01/12 10:57:35;;;;;;;3.40;2.10;;;;;;;;;;5017417;28;20485;-70
2022/01/12 11:00:19;;;;;;;5.00;3.33;;;;;;;;;;5017042;28;20086;-72
2022/01/12 11:02:46;;;;;;;;;;;;;;;;;;5024999;28;20089;-72
2022/01/12 11:05:13;;;;;;;7.80;4.07;;;;;;;;;;5022323;28;19956;-74
2022/01/12 11:07:39;;;;;;;6.90;3.50;;;;;;;;;;5015240;28;20473;-72
2022/01/12 11:10:07;;;;;;;5.93;2.75;;;;;;;;;;5026422;28;20037;-71
2022/01/12 11:12:35;;;;;;;4.68;2.70;;;;;;;;;;5019897;28;20041;-72
2022/01/12 11:15:11;;;;;;;8.35;3.90;;;;;;;;;;5023064;28;20104;-69
2022/01/12 11:17:39;;;;;;;4.13;2.88;;;;;;;;;;5030138;28;20029;-72
2022/01/12 11:20:25;;;;;;;13.05;3.72;;;;;;;;;;5018546;28;20159;-71
2022/01/12 11:23:01;;;;;;;6.15;3.65;;;;;;;;;;5022516;28;20073;-77
2022/01/12 11:25:33;;;;;;;6.00;3.95;;;;;;;;;;5030722;28;20109;-71
2022/01/12 11:28:24;;;;;;;6.45;4.53;;;;;;;;;;5028999;28;20038;-81
2022/01/12 11:30:50;;;;;;;5.72;3.25;;;;;;;;;;5029177;28;20412;-74
2022/01/12 11:33:38;;;;;;;6.70;3.10;;;;;;;;;;5020032;28;20092;-74
2022/01/12 11:36:12;;;;;;;5.97;3.80;;;;;;;;;;5019116;28;20152;-76
2022/01/12 11:38:38;;;;;;;7.63;3.15;;;;;;;;;;5024331;28;20030;-76
2022/01/12 11:41:28;;;;;;;5.10;3.60;;;;;;;;;;5027198;28;20025;-76
2022/01/12 11:44:12;;;;;;;4.50;2.85;;;;;;;;;;5013072;28;20041;-72
2022/01/12 11:46:44;;;;;;;10.45;3.70;;;;;;;;;;5025585;28;20129;-72
2022/01/12 11:49:12;;;;;;;4.78;3.08;;;;;;;;;;5017302;28;20030;-73
2022/01/12 11:51:40;;;;;;;9.05;5.25;;;;;;;;;;5029395;28;20026;-72
2022/01/12 11:54:19;;;;;;;8.52;4.93;;;;;;;;;;5022329;28;20546;-74
2022/01/12 11:57:01;;;;;;;7.80;4.82;;;;;;;;;;5018987;28;20046;-72
2022/01/12 11:59:29;;;;;;;6.85;4.07;;;;;;;;;;5018469;28;20040;-74
2022/01/12 12:02:14;;;;;;;7.13;3.80;;;;;;;;;;5029194;28;20105;-78
2022/01/12 12:04:55;;;;;;;6.25;4.10;;;;;;;;;;5023584;28;20156;-77
2022/01/12 12:07:25;;;;;;;9.48;5.03;;;;;;;;;;5017137;28;20052;-74
2022/01/12 12:09:57;;;;;;;6.50;3.08;;;;;;;;;;5028651;28;20096;-76
2022/01/12 12:12:34;;;;;;;11.43;6.03;;;;;;;;;;5023896;28;20029;-74
2022/01/12 12:15:04;;;;;;;11.63;4.60;;;;;;;;;;5017408;28;20033;-76
2022/01/12 12:17:32;;;;;;;6.85;4.00;;;;;;;;;;5029066;28;20034;-75
2022/01/12 12:19:59;;;;;;;6.63;3.78;;;;;;;;;;5027023;28;20384;-75
2022/01/12 12:22:34;;;;;;;7.30;4.82;;;;;;;;;;5020562;28;20038;-75
2022/01/12 12:25:11;;;;;;;5.78;3.15;;;;;;;;;;5027989;28;20133;-72
2022/01/12 12:27:40;;;;;;;8.38;4.00;;;;;;;;;;5018369;28;20384;-75
2022/01/12 12:30:13;;;;;;;7.65;3.47;;;;;;;;;;5021328;28;20392;-76
2022/01/12 12:32:42;;;;;;;6.95;3.75;;;;;;;;;;5029411;28;20084;-71
2022/01/12 12:35:22;;;;;;;7.88;3.35;;;;;;;;;;5011061;28;20026;-76
2022/01/12 12:37:57;;;;;;;5.40;2.83;;;;;;;;;;5025753;28;20116;-72
2022/01/12 12:40:39;;;;;;;10.07;4.75;;;;;;;;;;5028915;28;20036;-75
2022/01/12 12:43:24;;;;;;;6.45;4.00;;;;;;;;;;5022006;28;20042;-73
2022/01/12 12:45:56;;;;;;;4.63;2.78;;;;;;;;;;5017246;28;20041;-75
2022/01/12 12:48:24;;;;;;;7.63;3.80;;;;;;;;;;5013160;28;20036;-79
2022/01/12 12:51:00;;;;;;;6.93;2.88;;;;;;;;;;5022288;28;20025;-75
2022/01/12 12:53:27;;;;;;;3.95;1.85;;;;;;;;;;5032644;28;20056;-78
2022/01/12 12:55:53;;;;;;;6.82;3.17;;;;;;;;;;5029586;28;20029;-71
2022/01/12 12:58:19;;;;;;;7.90;3.65;;;;;;;;;;5018189;28;20041;-73
2022/01/12 13:00:45;;;;;;;8.10;4.43;;;;;;;;;;5031391;28;20042;-77
2022/01/12 13:03:10;;;;;;;10.07;5.00;;;;;;;;;;5027200;28;20033;-74
2022/01/12 13:05:43;;;;;;;5.88;2.70;;;;;;;;;;5020465;28;20029;-75
2022/01/12 13:08:10;;;;;;;10.48;4.50;;;;;;;;;;5018668;28;20052;-71
2022/01/12 13:10:36;;;;;;;4.10;2.80;;;;;;;;;;5028502;28;20384;-70
2022/01/12 13:13:04;;;;;;;6.05;2.70;;;;;;;;;;5017868;28;20025;-72
2022/01/12 13:15:40;;;;;;;5.63;2.85;;;;;;;;;;5023183;28;20034;-74
2022/01/12 13:18:13;;;;;;;3.40;2.40;;;;;;;;;;5027273;28;20040;-73
2022/01/12 13:23:30;;;;;;;5.95;3.17;;;;;;;;;;5022019;28;20034;-75
2022/01/12 13:25:58;;;;;;;5.38;3.50;;;;;;;;;;5027346;28;20522;-77
2022/01/12 13:28:25;;;;;;;5.88;3.28;;;;;;;;;;5015693;28;20026;-75
2022/01/12 13:31:00;;;;;;;6.82;2.83;;;;;;;;;;5016059;28;20047;-74
2022/01/12 13:33:35;;;;;;;4.90;2.97;;;;;;;;;;5018514;28;20030;-73
2022/01/12 13:36:33;;;;;;;7.20;3.95;;;;;;;;;;5020929;28;20041;-79
2022/01/12 13:39:13;;;;;;;4.25;2.75;;;;;;;;;;5027700;28;20161;-73
2022/01/12 13:41:45;;;;;;;7.32;3.70;;;;;;;;;;5021596;28;20029;-79
2022/01/12 13:44:17;;;;;;;8.68;3.70;;;;;;;;;;5032146;28;20033;-76
2022/01/12 13:47:03;;;;;;;9.85;4.25;;;;;;;;;;5015382;28;20040;-77
2022/01/12 13:49:29;;;;;;;7.95;4.07;;;;;;;;;;5022325;28;20520;-75
2022/01/12 13:52:00;;;;;;;9.10;5.05;;;;;;;;;;5024953;28;20093;-72
2022/01/12 13:54:34;;;;;;;8.40;5.22;;;;;;;;;;5014416;28;20445;-77
2022/01/12 13:57:00;;;;;;;13.45;8.63;;;;;;;;;;5025243;28;20045;-74
2022/01/12 13:59:29;;;;;;;13.18;7.65;;;;;;;;;;5029352;28;20376;-77
2022/01/12 14:01:56;;;;;;;9.40;4.75;;;;;;;;;;5031493;28;20396;-77
2022/01/12 14:04:35;;;;;;;11.80;6.63;;;;;;;;;;5015136;28;20025;-77
2022/01/12 14:07:04;;;;;;;9.07;5.03;;;;;;;;;;5031605;28;20385;-78
2022/01/12 14:09:39;;;;;;;9.00;5.43;;;;;;;;;;5019558;28;20038;-77
2022/01/12 14:12:17;;;;;;;8.98;5.15;;;;;;;;;;5028377;28;20036;-75
2022/01/12 14:15:00;;;;;;;10.73;5.40;;;;;;;;;;5030753;28;20030;-75
2022/01/12 14:17:29;;;;;;;8.45;5.18;;;;;;;;;;5031667;28;20033;-75
2022/01/12 14:19:59;;;;;;;7.95;4.03;;;;;;;;;;5025657;28;20029;-75
2022/01/12 14:22:26;;;;;;;9.57;4.63;;;;;;;;;;5012208;28;20030;-73
2022/01/12 14:25:03;;;;;;;12.07;5.05;;;;;;;;;;5025418;28;20117;-71
2022/01/12 14:27:48;;;;;;;9.48;5.45;;;;;;;;;;5012195;28;20511;-77
2022/01/12 14:30:17;;;;;;;11.75;5.63;;;;;;;;;;5023426;28;20095;-72
2022/01/12 14:32:44;;;;;;;11.15;5.80;;;;;;;;;;5016438;28;20034;-75
2022/01/12 14:35:13;;;;;;;8.73;4.88;;;;;;;;;;5010996;28;20113;-74
2022/01/12 14:37:39;;;;;;;9.30;5.63;;;;;;;;;;5027118;28;20495;-73
2022/01/12 14:40:07;;;;;;;10.50;6.45;;;;;;;;;;5020238;28;20042;-76
2022/01/12 14:42:40;;;;;;;10.93;5.15;;;;;;;;;;5022300;28;20045;-78
2022/01/12 14:45:07;;;;;;;9.93;6.05;;;;;;;;;;5020481;28;20069;-75
2022/01/12 14:47:33;;;;;;;11.93;7.03;;;;;;;;;;5022450;28;20125;-73
2022/01/12 14:49:59;;;;;;;12.85;6.75;;;;;;;;;;5030146;28;20493;-74
2022/01/12 14:52:24;;;;;;;14.13;6.20;;;;;;;;;;5016077;28;20516;-75
2022/01/12 14:54:50;;;;;;;12.82;5.05;;;;;;;;;;5013123;28;20426;-73
2022/01/12 14:57:16;;;;;;;12.32;6.30;;;;;;;;;;5014301;28;20353;-70
2022/01/12 14:59:42;;;;;;;9.48;4.75;;;;;;;;;;5014735;28;20077;-76
2022/01/12 15:02:07;;;;;;;9.77;5.20;;;;;;;;;;5030781;28;20495;-71
2022/01/12 15:04:33;;;;;;;7.50;4.50;;;;;;;;;;5023682;28;20029;-81
2022/01/12 15:06:59;;;;;;;10.15;4.65;;;;;;;;;;5022687;28;20100;-81
2022/01/12 15:09:25;;;;;;;8.15;4.68;;;;;;;;;;5030530;28;20128;-73
2022/01/12 15:11:51;;;;;;;6.78;4.07;;;;;;;;;;5019638;28;20078;-78
2022/01/12 15:14:32;;;;;;;9.15;4.20;;;;;;;;;;5026188;28;20041;-81
2022/01/12 15:16:58;;;;;;;9.05;4.50;;;;;;;;;;5028623;28;20365;-72
2022/01/12 15:19:24;;;;;;;7.13;3.67;;;;;;;;;;5018217;28;20080;-71
2022/01/12 15:21:50;;;;;;;6.80;4.00;;;;;;;;;;5028947;28;20026;-72
2022/01/12 15:24:16;;;;;;;8.35;4.18;;;;;;;;;;5024357;28;20029;-75
2022/01/12 15:26:41;;;;;;;11.48;6.05;;;;;;;;;;5020924;28;20045;-78
2022/01/12 15:29:07;;;;;;;9.75;5.10;;;;;;;;;;5031323;28;20025;-70
2022/01/12 15:31:33;;;;;;;9.43;5.03;;;;;;;;;;5033093;28;20108;-72
2022/01/12 15:33:59;;;;;;;10.77;5.80;;;;;;;;;;5025917;28;20414;-76
2022/01/12 15:36:25;;;;;;;14.73;8.43;;;;;;;;;;5022827;28;20087;-73
2022/01/12 15:38:50;;;;;;;19.90;10.43;;;;;;;;;;5026527;28;20082;-71
2022/01/12 15:41:16;;;;;;;14.30;8.20;;;;;;;;;;5018059;28;20034;-76
2022/01/12 15:43:42;;;;;;;17.25;9.60;;;;;;;;;;5029881;28;20397;-74
2022/01/12 15:46:08;;;;;;;19.02;10.43;;;;;;;;;;5021704;28;20393;-76
2022/01/12 15:48:40;;;;;;;18.92;11.40;;;;;;;;;;5017809;28;20034;-76
2022/01/12 15:51:06;;;;;;;20.00;10.95;;;;;;;;;;5030093;28;20038;-68
2022/01/12 15:53:32;;;;;;;18.92;9.30;;;;;;;;;;5029736;28;20492;-74
2022/01/12 15:55:58;;;;;;;15.40;9.32;;;;;;;;;;5022173;28;20411;-74
2022/01/12 15:58:24;;;;;;;17.35;9.68;;;;;;;;;;5030803;28;20037;-74
2022/01/12 16:00:50;;;;;;;19.83;10.55;;;;;;;;;;5033020;28;20033;-69
2022/01/12 16:03:16;;;;;;;16.35;8.82;;;;;;;;;;5018206;28;20049;-73
2022/01/12 16:05:42;;;;;;;14.95;8.43;;;;;;;;;;5030547;28;20108;-65
2022/01/12 16:08:08;;;;;;;19.60;10.18;;;;;;;;;;5016350;28;20060;-65
2022/01/12 16:10:36;;;;;;;18.02;10.45;;;;;;;;;;5031390;28;20084;-64
2022/01/12 16:13:02;;;;;;;17.55;9.20;;;;;;;;;;5017639;28;20112;-69
2022/01/12 16:15:28;;;;;;;15.00;8.82;;;;;;;;;;5030317;28;20053;-64